sensor_id;sensor_type;location;lat;lon;timestamp;P1;durP1;ratioP1;P2;durP2;ratioP2
17151;SDS011;8691;50.828;4.700;2022-10-17T00:00:25;10.43;;;9.32;;
17151;SDS011;8691;50.828;4.700;2022-10-17T00:02:53;9.00;;;8.10;;
17151;SDS011;8691;50.828;4.700;2022-10-17T00:05:18;11.23;;;10.23;;
17151;SDS011;8691;50.828;4.700;2022-10-17T00:07:45;11.02;;;9.07;;
17151;SDS011;8691;50.828;4.700;2022-10-17T00:10:13;10.93;;;9.30;;
17151;SDS011;8691;50.828;4.700;2022-10-17T00:12:39;10.20;;;9.17;;
17151;SDS011;8691;50.828;4.700;2022-10-17T00:15:06;9.88;;;8.98;;
17151;SDS011;8691;50.828;4.700;2022-10-17T00:17:33;9.88;;;8.88;;
17151;SDS011;8691;50.828;4.700;2022-10-17T00:20:00;9.03;;;7.73;;
17151;SDS011;8691;50.828;4.700;2022-10-17T00:22:27;10.57;;;9.43;;
17151;SDS011;8691;50.828;4.700;2022-10-17T00:24:53;13.00;;;8.00;;
17151;SDS011;8691;50.828;4.700;2022-10-17T00:27:20;10.90;;;9.10;;
17151;SDS011;8691;50.828;4.700;2022-10-17T00:29:50;10.40;;;9.27;;
17151;SDS011;8691;50.828;4.700;2022-10-17T00:32:17;9.12;;;8.30;;
17151;SDS011;8691;50.828;4.700;2022-10-17T00:34:43;10.00;;;7.33;;
17151;SDS011;8691;50.828;4.700;2022-10-17T00:37:10;9.60;;;8.48;;
17151;SDS011;8691;50.828;4.700;2022-10-17T00:39:37;9.45;;;8.50;;
17151;SDS011;8691;50.828;4.700;2022-10-17T00:42:04;9.23;;;8.40;;
17151;SDS011;8691;50.828;4.700;2022-10-17T00:47:00;9.38;;;8.48;;
17151;SDS011;8691;50.828;4.700;2022-10-17T00:49:27;10.43;;;8.33;;
17151;SDS011;8691;50.828;4.700;2022-10-17T00:52:03;8.97;;;8.17;;
17151;SDS011;8691;50.828;4.700;2022-10-17T00:54:37;9.07;;;7.97;;
17151;SDS011;8691;50.828;4.700;2022-10-17T00:57:01;9.27;;;7.27;;
17151;SDS011;8691;50.828;4.700;2022-10-17T00:59:28;9.60;;;7.93;;
17151;SDS011;8691;50.828;4.700;2022-10-17T01:01:56;9.53;;;8.10;;
17151;SDS011;8691;50.828;4.700;2022-10-17T01:04:22;9.57;;;8.60;;
17151;SDS011;8691;50.828;4.700;2022-10-17T01:06:49;8.63;;;7.17;;
17151;SDS011;8691;50.828;4.700;2022-10-17T01:09:16;9.38;;;8.15;;
17151;SDS011;8691;50.828;4.700;2022-10-17T01:14:29;11.10;;;8.40;;
17151;SDS011;8691;50.828;4.700;2022-10-17T01:17:01;10.35;;;8.05;;
17151;SDS011;8691;50.828;4.700;2022-10-17T01:19:34;7.60;;;6.90;;
17151;SDS011;8691;50.828;4.700;2022-10-17T01:22:06;9.02;;;7.78;;
17151;SDS011;8691;50.828;4.700;2022-10-17T01:24:54;9.07;;;8.10;;
17151;SDS011;8691;50.828;4.700;2022-10-17T01:27:17;9.00;;;8.10;;
17151;SDS011;8691;50.828;4.700;2022-10-17T01:29:44;9.07;;;7.78;;
17151;SDS011;8691;50.828;4.700;2022-10-17T01:32:14;8.70;;;7.90;;
17151;SDS011;8691;50.828;4.700;2022-10-17T01:37:26;10.82;;;7.88;;
17151;SDS011;8691;50.828;4.700;2022-10-17T01:39:51;8.13;;;7.33;;
17151;SDS011;8691;50.828;4.700;2022-10-17T01:42:18;8.07;;;7.27;;
17151;SDS011;8691;50.828;4.700;2022-10-17T01:44:46;9.05;;;7.15;;
17151;SDS011;8691;50.828;4.700;2022-10-17T01:47:12;8.62;;;6.75;;
17151;SDS011;8691;50.828;4.700;2022-10-17T01:49:38;6.47;;;5.80;;
17151;SDS011;8691;50.828;4.700;2022-10-17T01:52:12;7.85;;;7.05;;
17151;SDS011;8691;50.828;4.700;2022-10-17T01:54:47;8.35;;;6.70;;
17151;SDS011;8691;50.828;4.700;2022-10-17T01:57:33;7.63;;;6.30;;
17151;SDS011;8691;50.828;4.700;2022-10-17T01:59:48;6.60;;;5.60;;
17151;SDS011;8691;50.828;4.700;2022-10-17T02:02:15;9.20;;;6.70;;
17151;SDS011;8691;50.828;4.700;2022-10-17T02:04:42;8.90;;;7.07;;
17151;SDS011;8691;50.828;4.700;2022-10-17T02:07:09;6.83;;;6.13;;
17151;SDS011;8691;50.828;4.700;2022-10-17T02:09:35;6.97;;;6.38;;
17151;SDS011;8691;50.828;4.700;2022-10-17T02:17:39;6.88;;;5.72;;
17151;SDS011;8691;50.828;4.700;2022-10-17T02:19:49;7.28;;;6.55;;
17151;SDS011;8691;50.828;4.700;2022-10-17T02:22:42;6.03;;;5.50;;
17151;SDS011;8691;50.828;4.700;2022-10-17T02:25:12;8.10;;;6.53;;
17151;SDS011;8691;50.828;4.700;2022-10-17T02:27:43;7.25;;;6.40;;
17151;SDS011;8691;50.828;4.700;2022-10-17T02:30:34;8.30;;;6.45;;
17151;SDS011;8691;50.828;4.700;2022-10-17T02:33:01;6.70;;;6.00;;
17151;SDS011;8691;50.828;4.700;2022-10-17T02:35:28;7.80;;;6.60;;
17151;SDS011;8691;50.828;4.700;2022-10-17T02:37:53;7.63;;;5.83;;
17151;SDS011;8691;50.828;4.700;2022-10-17T02:40:20;8.05;;;6.15;;
17151;SDS011;8691;50.828;4.700;2022-10-17T02:42:46;8.13;;;5.53;;
17151;SDS011;8691;50.828;4.700;2022-10-17T02:45:13;7.50;;;6.12;;
17151;SDS011;8691;50.828;4.700;2022-10-17T02:50:13;7.00;;;6.20;;
17151;SDS011;8691;50.828;4.700;2022-10-17T02:53:00;7.10;;;6.00;;
17151;SDS011;8691;50.828;4.700;2022-10-17T02:55:30;7.68;;;6.18;;
17151;SDS011;8691;50.828;4.700;2022-10-17T02:57:57;7.30;;;5.97;;
17151;SDS011;8691;50.828;4.700;2022-10-17T03:00:22;6.25;;;5.68;;
17151;SDS011;8691;50.828;4.700;2022-10-17T03:02:51;6.20;;;5.60;;
17151;SDS011;8691;50.828;4.700;2022-10-17T03:05:22;6.40;;;5.68;;
17151;SDS011;8691;50.828;4.700;2022-10-17T03:07:48;7.12;;;5.93;;
17151;SDS011;8691;50.828;4.700;2022-10-17T03:10:15;7.15;;;5.95;;
17151;SDS011;8691;50.828;4.700;2022-10-17T03:12:42;6.20;;;5.03;;
17151;SDS011;8691;50.828;4.700;2022-10-17T03:15:09;5.17;;;4.70;;
17151;SDS011;8691;50.828;4.700;2022-10-17T03:17:36;8.37;;;5.77;;
17151;SDS011;8691;50.828;4.700;2022-10-17T03:20:03;5.20;;;4.70;;
17151;SDS011;8691;50.828;4.700;2022-10-17T03:22:30;7.72;;;5.45;;
17151;SDS011;8691;50.828;4.700;2022-10-17T03:24:57;6.90;;;4.93;;
17151;SDS011;8691;50.828;4.700;2022-10-17T03:27:24;6.90;;;5.80;;
17151;SDS011;8691;50.828;4.700;2022-10-17T03:29:50;6.72;;;5.70;;
17151;SDS011;8691;50.828;4.700;2022-10-17T03:32:18;6.80;;;5.70;;
17151;SDS011;8691;50.828;4.700;2022-10-17T03:34:45;7.23;;;5.37;;
17151;SDS011;8691;50.828;4.700;2022-10-17T03:37:11;6.80;;;5.03;;
17151;SDS011;8691;50.828;4.700;2022-10-17T03:39:38;6.38;;;5.40;;
17151;SDS011;8691;50.828;4.700;2022-10-17T03:42:05;6.53;;;5.13;;
17151;SDS011;8691;50.828;4.700;2022-10-17T03:44:32;6.15;;;5.55;;
17151;SDS011;8691;50.828;4.700;2022-10-17T03:46:58;10.07;;;5.00;;
17151;SDS011;8691;50.828;4.700;2022-10-17T03:49:25;6.93;;;5.68;;
17151;SDS011;8691;50.828;4.700;2022-10-17T03:51:52;7.15;;;5.88;;
17151;SDS011;8691;50.828;4.700;2022-10-17T03:54:19;5.70;;;5.20;;
17151;SDS011;8691;50.828;4.700;2022-10-17T03:56:46;6.77;;;4.80;;
17151;SDS011;8691;50.828;4.700;2022-10-17T03:59:13;6.03;;;5.22;;
17151;SDS011;8691;50.828;4.700;2022-10-17T04:01:40;4.80;;;4.40;;
17151;SDS011;8691;50.828;4.700;2022-10-17T04:04:07;6.53;;;5.50;;
17151;SDS011;8691;50.828;4.700;2022-10-17T04:06:35;7.10;;;5.40;;
17151;SDS011;8691;50.828;4.700;2022-10-17T04:09:01;5.90;;;5.20;;
17151;SDS011;8691;50.828;4.700;2022-10-17T04:11:28;7.18;;;5.72;;
17151;SDS011;8691;50.828;4.700;2022-10-17T04:13:55;7.40;;;4.95;;
17151;SDS011;8691;50.828;4.700;2022-10-17T04:16:22;7.82;;;5.95;;
17151;SDS011;8691;50.828;4.700;2022-10-17T04:18:52;6.67;;;4.93;;
17151;SDS011;8691;50.828;4.700;2022-10-17T04:21:19;7.75;;;5.18;;
17151;SDS011;8691;50.828;4.700;2022-10-17T04:23:45;5.80;;;5.10;;
17151;SDS011;8691;50.828;4.700;2022-10-17T04:26:13;6.90;;;5.03;;
17151;SDS011;8691;50.828;4.700;2022-10-17T04:28:39;5.30;;;4.80;;
17151;SDS011;8691;50.828;4.700;2022-10-17T04:31:07;6.40;;;5.00;;
17151;SDS011;8691;50.828;4.700;2022-10-17T04:33:33;6.25;;;5.12;;
17151;SDS011;8691;50.828;4.700;2022-10-17T04:36:00;10.07;;;4.63;;
17151;SDS011;8691;50.828;4.700;2022-10-17T04:38:27;5.90;;;5.07;;
17151;SDS011;8691;50.828;4.700;2022-10-17T04:40:57;5.40;;;4.90;;
17151;SDS011;8691;50.828;4.700;2022-10-17T04:43:24;5.12;;;4.40;;
17151;SDS011;8691;50.828;4.700;2022-10-17T04:45:51;5.67;;;5.07;;
17151;SDS011;8691;50.828;4.700;2022-10-17T04:48:18;7.55;;;5.18;;
17151;SDS011;8691;50.828;4.700;2022-10-17T04:50:54;4.90;;;4.20;;
17151;SDS011;8691;50.828;4.700;2022-10-17T04:53:27;5.62;;;5.03;;
17151;SDS011;8691;50.828;4.700;2022-10-17T04:55:53;6.15;;;5.10;;
17151;SDS011;8691;50.828;4.700;2022-10-17T04:58:21;7.83;;;4.83;;
17151;SDS011;8691;50.828;4.700;2022-10-17T05:00:49;5.90;;;5.30;;
17151;SDS011;8691;50.828;4.700;2022-10-17T05:03:16;6.97;;;5.10;;
17151;SDS011;8691;50.828;4.700;2022-10-17T05:05:43;6.40;;;4.90;;
17151;SDS011;8691;50.828;4.700;2022-10-17T05:08:10;5.53;;;4.97;;
17151;SDS011;8691;50.828;4.700;2022-10-17T05:10:37;7.03;;;4.03;;
17151;SDS011;8691;50.828;4.700;2022-10-17T05:13:03;8.43;;;4.47;;
17151;SDS011;8691;50.828;4.700;2022-10-17T05:15:30;5.90;;;4.90;;
17151;SDS011;8691;50.828;4.700;2022-10-17T05:17:57;5.90;;;4.80;;
17151;SDS011;8691;50.828;4.700;2022-10-17T05:20:23;6.03;;;4.30;;
17151;SDS011;8691;50.828;4.700;2022-10-17T05:22:50;5.82;;;5.20;;
17151;SDS011;8691;50.828;4.700;2022-10-17T05:25:17;5.50;;;5.00;;
17151;SDS011;8691;50.828;4.700;2022-10-17T05:27:44;5.93;;;4.43;;
17151;SDS011;8691;50.828;4.700;2022-10-17T05:30:11;6.43;;;4.40;;
17151;SDS011;8691;50.828;4.700;2022-10-17T05:32:38;6.45;;;4.85;;
17151;SDS011;8691;50.828;4.700;2022-10-17T05:35:05;5.47;;;4.50;;
17151;SDS011;8691;50.828;4.700;2022-10-17T05:37:32;7.10;;;4.57;;
17151;SDS011;8691;50.828;4.700;2022-10-17T05:39:58;6.23;;;4.23;;
17151;SDS011;8691;50.828;4.700;2022-10-17T05:42:25;8.18;;;5.05;;
17151;SDS011;8691;50.828;4.700;2022-10-17T05:44:52;5.82;;;4.65;;
17151;SDS011;8691;50.828;4.700;2022-10-17T05:47:20;6.50;;;4.40;;
17151;SDS011;8691;50.828;4.700;2022-10-17T05:49:46;6.47;;;4.80;;
17151;SDS011;8691;50.828;4.700;2022-10-17T05:52:13;6.20;;;4.78;;
17151;SDS011;8691;50.828;4.700;2022-10-17T05:54:40;8.68;;;4.40;;
17151;SDS011;8691;50.828;4.700;2022-10-17T05:57:07;6.17;;;4.23;;
17151;SDS011;8691;50.828;4.700;2022-10-17T05:59:34;5.25;;;4.18;;
17151;SDS011;8691;50.828;4.700;2022-10-17T06:02:00;5.00;;;4.07;;
17151;SDS011;8691;50.828;4.700;2022-10-17T06:04:27;7.05;;;4.95;;
17151;SDS011;8691;50.828;4.700;2022-10-17T06:06:55;4.70;;;4.27;;
17151;SDS011;8691;50.828;4.700;2022-10-17T06:09:22;5.17;;;3.90;;
17151;SDS011;8691;50.828;4.700;2022-10-17T06:11:49;5.50;;;4.38;;
17151;SDS011;8691;50.828;4.700;2022-10-17T06:14:16;4.90;;;4.32;;
17151;SDS011;8691;50.828;4.700;2022-10-17T06:16:42;6.18;;;4.43;;
17151;SDS011;8691;50.828;4.700;2022-10-17T06:19:09;7.50;;;4.00;;
17151;SDS011;8691;50.828;4.700;2022-10-17T06:21:36;9.03;;;4.00;;
17151;SDS011;8691;50.828;4.700;2022-10-17T06:24:03;5.97;;;3.70;;
17151;SDS011;8691;50.828;4.700;2022-10-17T06:26:29;5.30;;;4.18;;
17151;SDS011;8691;50.828;4.700;2022-10-17T06:28:57;4.90;;;4.00;;
17151;SDS011;8691;50.828;4.700;2022-10-17T06:31:24;4.97;;;3.90;;
17151;SDS011;8691;50.828;4.700;2022-10-17T06:33:51;4.73;;;3.50;;
17151;SDS011;8691;50.828;4.700;2022-10-17T06:36:18;5.17;;;3.70;;
17151;SDS011;8691;50.828;4.700;2022-10-17T06:38:45;5.12;;;4.20;;
17151;SDS011;8691;50.828;4.700;2022-10-17T06:41:12;5.97;;;3.80;;
17151;SDS011;8691;50.828;4.700;2022-10-17T06:43:39;5.95;;;4.00;;
17151;SDS011;8691;50.828;4.700;2022-10-17T06:46:05;5.75;;;3.60;;
17151;SDS011;8691;50.828;4.700;2022-10-17T06:48:32;4.47;;;3.17;;
17151;SDS011;8691;50.828;4.700;2022-10-17T06:51:03;4.70;;;3.57;;
17151;SDS011;8691;50.828;4.700;2022-10-17T06:53:26;4.67;;;3.30;;
17151;SDS011;8691;50.828;4.700;2022-10-17T06:55:53;5.07;;;3.53;;
17151;SDS011;8691;50.828;4.700;2022-10-17T06:58:20;4.85;;;3.67;;
17151;SDS011;8691;50.828;4.700;2022-10-17T07:00:46;7.90;;;4.07;;
17151;SDS011;8691;50.828;4.700;2022-10-17T07:03:13;5.37;;;3.40;;
17151;SDS011;8691;50.828;4.700;2022-10-17T07:05:40;5.00;;;3.10;;
17151;SDS011;8691;50.828;4.700;2022-10-17T07:08:06;3.80;;;3.00;;
17151;SDS011;8691;50.828;4.700;2022-10-17T07:10:33;3.65;;;3.20;;
17151;SDS011;8691;50.828;4.700;2022-10-17T07:13:00;5.62;;;3.60;;
17151;SDS011;8691;50.828;4.700;2022-10-17T07:15:28;5.40;;;3.40;;
17151;SDS011;8691;50.828;4.700;2022-10-17T07:17:54;7.50;;;3.27;;
17151;SDS011;8691;50.828;4.700;2022-10-17T07:20:22;5.50;;;3.30;;
17151;SDS011;8691;50.828;4.700;2022-10-17T07:22:49;4.73;;;3.00;;
17151;SDS011;8691;50.828;4.700;2022-10-17T07:25:15;5.73;;;3.27;;
17151;SDS011;8691;50.828;4.700;2022-10-17T07:27:42;4.65;;;3.50;;
17151;SDS011;8691;50.828;4.700;2022-10-17T07:30:09;6.03;;;3.30;;
17151;SDS011;8691;50.828;4.700;2022-10-17T07:32:36;5.07;;;3.40;;
17151;SDS011;8691;50.828;4.700;2022-10-17T07:35:03;3.95;;;2.97;;
17151;SDS011;8691;50.828;4.700;2022-10-17T07:37:30;4.57;;;3.50;;
17151;SDS011;8691;50.828;4.700;2022-10-17T07:39:57;5.40;;;3.50;;
17151;SDS011;8691;50.828;4.700;2022-10-17T07:42:24;7.87;;;3.53;;
17151;SDS011;8691;50.828;4.700;2022-10-17T07:44:51;4.72;;;3.40;;
17151;SDS011;8691;50.828;4.700;2022-10-17T07:47:18;6.97;;;3.37;;
17151;SDS011;8691;50.828;4.700;2022-10-17T07:49:45;7.73;;;3.27;;
17151;SDS011;8691;50.828;4.700;2022-10-17T07:52:12;5.03;;;3.58;;
17151;SDS011;8691;50.828;4.700;2022-10-17T07:54:38;5.90;;;3.75;;
17151;SDS011;8691;50.828;4.700;2022-10-17T07:57:06;5.23;;;3.57;;
17151;SDS011;8691;50.828;4.700;2022-10-17T07:59:33;7.33;;;3.80;;
17151;SDS011;8691;50.828;4.700;2022-10-17T08:02:01;5.15;;;3.62;;
17151;SDS011;8691;50.828;4.700;2022-10-17T08:04:27;4.20;;;3.55;;
17151;SDS011;8691;50.828;4.700;2022-10-17T08:06:54;8.43;;;3.60;;
17151;SDS011;8691;50.828;4.700;2022-10-17T08:09:21;5.70;;;3.70;;
17151;SDS011;8691;50.828;4.700;2022-10-17T08:11:48;6.05;;;3.83;;
17151;SDS011;8691;50.828;4.700;2022-10-17T08:14:15;5.87;;;4.47;;
17151;SDS011;8691;50.828;4.700;2022-10-17T08:16:42;6.63;;;4.00;;
17151;SDS011;8691;50.828;4.700;2022-10-17T08:19:09;7.27;;;3.23;;
17151;SDS011;8691;50.828;4.700;2022-10-17T08:21:36;4.63;;;3.50;;
17151;SDS011;8691;50.828;4.700;2022-10-17T08:24:03;6.15;;;4.18;;
17151;SDS011;8691;50.828;4.700;2022-10-17T08:26:30;7.07;;;3.63;;
17151;SDS011;8691;50.828;4.700;2022-10-17T08:28:56;8.83;;;3.40;;
17151;SDS011;8691;50.828;4.700;2022-10-17T08:31:23;7.18;;;4.20;;
17151;SDS011;8691;50.828;4.700;2022-10-17T08:33:50;8.62;;;4.38;;
17151;SDS011;8691;50.828;4.700;2022-10-17T08:36:18;5.77;;;4.30;;
17151;SDS011;8691;50.828;4.700;2022-10-17T08:38:44;7.05;;;4.47;;
17151;SDS011;8691;50.828;4.700;2022-10-17T08:41:34;7.60;;;4.20;;
17151;SDS011;8691;50.828;4.700;2022-10-17T08:46:46;6.73;;;4.53;;
17151;SDS011;8691;50.828;4.700;2022-10-17T08:49:26;8.27;;;4.60;;
17151;SDS011;8691;50.828;4.700;2022-10-17T08:51:51;7.50;;;4.50;;
17151;SDS011;8691;50.828;4.700;2022-10-17T08:54:19;9.15;;;5.20;;
17151;SDS011;8691;50.828;4.700;2022-10-17T08:56:47;6.30;;;4.90;;
17151;SDS011;8691;50.828;4.700;2022-10-17T08:59:13;8.23;;;4.90;;
17151;SDS011;8691;50.828;4.700;2022-10-17T09:09:35;5.93;;;4.57;;
17151;SDS011;8691;50.828;4.700;2022-10-17T09:20:23;6.97;;;4.70;;
17151;SDS011;8691;50.828;4.700;2022-10-17T09:22:51;7.17;;;4.70;;
17151;SDS011;8691;50.828;4.700;2022-10-17T09:25:18;6.82;;;4.90;;
17151;SDS011;8691;50.828;4.700;2022-10-17T09:27:47;6.18;;;4.47;;
17151;SDS011;8691;50.828;4.700;2022-10-17T09:30:21;8.57;;;5.00;;
17151;SDS011;8691;50.828;4.700;2022-10-17T09:32:49;9.27;;;4.78;;
17151;SDS011;8691;50.828;4.700;2022-10-17T09:35:16;7.50;;;4.30;;
17151;SDS011;8691;50.828;4.700;2022-10-17T09:37:42;6.88;;;4.85;;
17151;SDS011;8691;50.828;4.700;2022-10-17T09:40:15;7.07;;;4.78;;
17151;SDS011;8691;50.828;4.700;2022-10-17T09:42:40;6.62;;;4.75;;
17151;SDS011;8691;50.828;4.700;2022-10-17T09:45:17;6.10;;;4.40;;
17151;SDS011;8691;50.828;4.700;2022-10-17T09:47:46;7.03;;;4.67;;
17151;SDS011;8691;50.828;4.700;2022-10-17T09:50:20;8.10;;;4.80;;
17151;SDS011;8691;50.828;4.700;2022-10-17T09:52:51;6.18;;;4.75;;
17151;SDS011;8691;50.828;4.700;2022-10-17T09:55:21;6.90;;;4.80;;
17151;SDS011;8691;50.828;4.700;2022-10-17T09:58:01;7.30;;;4.50;;
17151;SDS011;8691;50.828;4.700;2022-10-17T10:05:34;6.62;;;4.80;;
17151;SDS011;8691;50.828;4.700;2022-10-17T10:08:19;6.60;;;4.10;;
17151;SDS011;8691;50.828;4.700;2022-10-17T10:10:31;7.03;;;4.70;;
17151;SDS011;8691;50.828;4.700;2022-10-17T10:15:41;5.93;;;4.27;;
17151;SDS011;8691;50.828;4.700;2022-10-17T10:18:25;6.93;;;4.62;;
17151;SDS011;8691;50.828;4.700;2022-10-17T10:24:30;7.50;;;4.05;;
17151;SDS011;8691;50.828;4.700;2022-10-17T10:26:17;6.57;;;4.30;;
17151;SDS011;8691;50.828;4.700;2022-10-17T10:28:40;8.40;;;4.70;;
17151;SDS011;8691;50.828;4.700;2022-10-17T10:31:07;6.20;;;3.97;;
17151;SDS011;8691;50.828;4.700;2022-10-17T10:33:35;6.60;;;3.95;;
17151;SDS011;8691;50.828;4.700;2022-10-17T10:36:02;5.07;;;3.90;;
17151;SDS011;8691;50.828;4.700;2022-10-17T10:38:29;8.55;;;4.18;;
17151;SDS011;8691;50.828;4.700;2022-10-17T10:40:56;8.60;;;3.97;;
17151;SDS011;8691;50.828;4.700;2022-10-17T10:43:32;6.27;;;3.80;;
17151;SDS011;8691;50.828;4.700;2022-10-17T10:46:01;7.07;;;3.90;;
17151;SDS011;8691;50.828;4.700;2022-10-17T10:48:32;4.93;;;3.47;;
17151;SDS011;8691;50.828;4.700;2022-10-17T10:51:04;6.95;;;3.40;;
17151;SDS011;8691;50.828;4.700;2022-10-17T10:56:29;5.15;;;3.42;;
17151;SDS011;8691;50.828;4.700;2022-10-17T10:58:56;7.12;;;3.60;;
17151;SDS011;8691;50.828;4.700;2022-10-17T11:03:53;5.90;;;3.60;;
17151;SDS011;8691;50.828;4.700;2022-10-17T11:06:26;5.53;;;3.30;;
17151;SDS011;8691;50.828;4.700;2022-10-17T11:09:01;6.88;;;3.72;;
17151;SDS011;8691;50.828;4.700;2022-10-17T11:11:41;5.93;;;3.37;;
17151;SDS011;8691;50.828;4.700;2022-10-17T11:14:17;5.88;;;3.53;;
17151;SDS011;8691;50.828;4.700;2022-10-17T11:16:56;5.00;;;3.47;;
17151;SDS011;8691;50.828;4.700;2022-10-17T11:19:30;5.43;;;3.42;;
17151;SDS011;8691;50.828;4.700;2022-10-17T11:24:45;4.90;;;3.30;;
17151;SDS011;8691;50.828;4.700;2022-10-17T11:27:15;6.90;;;3.30;;
17151;SDS011;8691;50.828;4.700;2022-10-17T11:29:42;7.30;;;3.20;;
17151;SDS011;8691;50.828;4.700;2022-10-17T11:32:12;7.07;;;3.50;;
17151;SDS011;8691;50.828;4.700;2022-10-17T11:34:48;5.43;;;3.00;;
17151;SDS011;8691;50.828;4.700;2022-10-17T11:37:19;6.93;;;3.40;;
17151;SDS011;8691;50.828;4.700;2022-10-17T11:39:51;5.80;;;3.10;;
17151;SDS011;8691;50.828;4.700;2022-10-17T11:42:19;4.63;;;3.13;;
17151;SDS011;8691;50.828;4.700;2022-10-17T11:44:44;6.55;;;3.20;;
17151;SDS011;8691;50.828;4.700;2022-10-17T11:52:45;6.90;;;3.30;;
17151;SDS011;8691;50.828;4.700;2022-10-17T11:55:27;4.93;;;3.40;;
17151;SDS011;8691;50.828;4.700;2022-10-17T12:03:35;5.57;;;3.38;;
17151;SDS011;8691;50.828;4.700;2022-10-17T12:08:50;6.37;;;3.63;;
17151;SDS011;8691;50.828;4.700;2022-10-17T12:11:23;7.30;;;3.33;;
17151;SDS011;8691;50.828;4.700;2022-10-17T12:14:02;6.43;;;3.65;;
17151;SDS011;8691;50.828;4.700;2022-10-17T12:21:26;5.18;;;3.70;;
17151;SDS011;8691;50.828;4.700;2022-10-17T12:23:53;5.95;;;4.20;;
17151;SDS011;8691;50.828;4.700;2022-10-17T12:26:26;6.93;;;3.73;;
17151;SDS011;8691;50.828;4.700;2022-10-17T12:28:52;6.60;;;3.47;;
17151;SDS011;8691;50.828;4.700;2022-10-17T12:31:20;5.23;;;3.57;;
17151;SDS011;8691;50.828;4.700;2022-10-17T12:33:50;6.20;;;3.63;;
17151;SDS011;8691;50.828;4.700;2022-10-17T12:46:49;5.97;;;3.60;;
17151;SDS011;8691;50.828;4.700;2022-10-17T12:54:41;6.78;;;4.10;;
17151;SDS011;8691;50.828;4.700;2022-10-17T12:57:08;5.30;;;4.10;;
17151;SDS011;8691;50.828;4.700;2022-10-17T12:59:30;7.97;;;4.47;;
17151;SDS011;8691;50.828;4.700;2022-10-17T13:01:58;6.10;;;4.27;;
17151;SDS011;8691;50.828;4.700;2022-10-17T13:04:24;8.15;;;4.90;;
17151;SDS011;8691;50.828;4.700;2022-10-17T13:06:51;9.13;;;4.57;;
17151;SDS011;8691;50.828;4.700;2022-10-17T13:09:19;6.12;;;4.55;;
17151;SDS011;8691;50.828;4.700;2022-10-17T13:11:44;7.10;;;4.50;;
17151;SDS011;8691;50.828;4.700;2022-10-17T13:14:11;8.77;;;4.70;;
17151;SDS011;8691;50.828;4.700;2022-10-17T13:16:50;6.40;;;4.67;;
17151;SDS011;8691;50.828;4.700;2022-10-17T13:19:15;10.38;;;5.88;;
17151;SDS011;8691;50.828;4.700;2022-10-17T13:21:55;11.50;;;5.90;;
17151;SDS011;8691;50.828;4.700;2022-10-17T13:24:41;9.70;;;6.60;;
17151;SDS011;8691;50.828;4.700;2022-10-17T13:26:52;8.60;;;6.97;;
17151;SDS011;8691;50.828;4.700;2022-10-17T13:29:20;8.60;;;7.47;;
17151;SDS011;8691;50.828;4.700;2022-10-17T14:05:21;6.77;;;4.60;;
17151;SDS011;8691;50.828;4.700;2022-10-17T14:07:50;7.72;;;4.68;;
17151;SDS011;8691;50.828;4.700;2022-10-17T14:10:22;8.60;;;4.70;;
17151;SDS011;8691;50.828;4.700;2022-10-17T14:12:49;6.53;;;4.03;;
17151;SDS011;8691;50.828;4.700;2022-10-17T14:15:16;6.75;;;4.95;;
17151;SDS011;8691;50.828;4.700;2022-10-17T14:17:42;7.20;;;5.10;;
17151;SDS011;8691;50.828;4.700;2022-10-17T14:20:19;8.27;;;4.63;;
17151;SDS011;8691;50.828;4.700;2022-10-17T14:22:45;6.68;;;4.72;;
17151;SDS011;8691;50.828;4.700;2022-10-17T14:27:59;5.27;;;3.80;;
17151;SDS011;8691;50.828;4.700;2022-10-17T14:32:54;7.37;;;4.40;;
17151;SDS011;8691;50.828;4.700;2022-10-17T14:35:20;6.63;;;4.17;;
17151;SDS011;8691;50.828;4.700;2022-10-17T14:37:48;8.30;;;4.50;;
17151;SDS011;8691;50.828;4.700;2022-10-17T14:40:22;9.67;;;4.00;;
17151;SDS011;8691;50.828;4.700;2022-10-17T14:42:54;8.20;;;4.37;;
17151;SDS011;8691;50.828;4.700;2022-10-17T14:45:21;5.97;;;4.17;;
17151;SDS011;8691;50.828;4.700;2022-10-17T14:47:49;8.47;;;5.20;;
17151;SDS011;8691;50.828;4.700;2022-10-17T14:50:20;8.07;;;4.33;;
17151;SDS011;8691;50.828;4.700;2022-10-17T14:53:00;7.68;;;5.05;;
17151;SDS011;8691;50.828;4.700;2022-10-17T14:55:28;6.85;;;4.82;;
17151;SDS011;8691;50.828;4.700;2022-10-17T14:57:54;7.57;;;5.33;;
17151;SDS011;8691;50.828;4.700;2022-10-17T15:00:21;10.93;;;4.40;;
17151;SDS011;8691;50.828;4.700;2022-10-17T15:02:48;6.73;;;4.20;;
17151;SDS011;8691;50.828;4.700;2022-10-17T15:05:14;8.57;;;4.60;;
17151;SDS011;8691;50.828;4.700;2022-10-17T15:07:41;9.33;;;4.90;;
17151;SDS011;8691;50.828;4.700;2022-10-17T15:10:22;8.33;;;4.20;;
17151;SDS011;8691;50.828;4.700;2022-10-17T15:12:52;5.63;;;3.93;;
17151;SDS011;8691;50.828;4.700;2022-10-17T15:15:18;7.87;;;4.43;;
17151;SDS011;8691;50.828;4.700;2022-10-17T15:17:45;5.78;;;4.62;;
17151;SDS011;8691;50.828;4.700;2022-10-17T15:20:13;6.95;;;4.53;;
17151;SDS011;8691;50.828;4.700;2022-10-17T15:22:39;7.30;;;4.93;;
17151;SDS011;8691;50.828;4.700;2022-10-17T15:25:05;9.07;;;4.30;;
17151;SDS011;8691;50.828;4.700;2022-10-17T15:27:32;5.90;;;4.20;;
17151;SDS011;8691;50.828;4.700;2022-10-17T15:29:59;9.73;;;4.87;;
17151;SDS011;8691;50.828;4.700;2022-10-17T15:32:26;7.93;;;4.60;;
17151;SDS011;8691;50.828;4.700;2022-10-17T15:34:53;6.23;;;4.23;;
17151;SDS011;8691;50.828;4.700;2022-10-17T15:37:21;6.40;;;5.00;;
17151;SDS011;8691;50.828;4.700;2022-10-17T15:39:47;5.70;;;4.50;;
17151;SDS011;8691;50.828;4.700;2022-10-17T15:42:14;5.30;;;4.60;;
17151;SDS011;8691;50.828;4.700;2022-10-17T15:44:42;6.72;;;5.53;;
17151;SDS011;8691;50.828;4.700;2022-10-17T15:47:10;6.20;;;4.70;;
17151;SDS011;8691;50.828;4.700;2022-10-17T15:49:36;8.03;;;5.63;;
17151;SDS011;8691;50.828;4.700;2022-10-17T15:52:02;7.43;;;5.80;;
17151;SDS011;8691;50.828;4.700;2022-10-17T15:54:30;9.53;;;5.97;;
17151;SDS011;8691;50.828;4.700;2022-10-17T15:56:56;10.20;;;5.87;;
17151;SDS011;8691;50.828;4.700;2022-10-17T15:59:29;7.33;;;6.03;;
17151;SDS011;8691;50.828;4.700;2022-10-17T16:01:50;11.60;;;7.77;;
17151;SDS011;8691;50.828;4.700;2022-10-17T16:04:18;12.23;;;6.53;;
17151;SDS011;8691;50.828;4.700;2022-10-17T16:06:44;8.80;;;5.50;;
17151;SDS011;8691;50.828;4.700;2022-10-17T16:09:12;9.00;;;5.40;;
17151;SDS011;8691;50.828;4.700;2022-10-17T16:11:40;9.23;;;6.33;;
17151;SDS011;8691;50.828;4.700;2022-10-17T16:14:12;7.83;;;5.97;;
17151;SDS011;8691;50.828;4.700;2022-10-17T16:16:37;10.00;;;5.50;;
17151;SDS011;8691;50.828;4.700;2022-10-17T16:19:05;10.63;;;5.83;;
17151;SDS011;8691;50.828;4.700;2022-10-17T16:21:32;9.57;;;6.10;;
17151;SDS011;8691;50.828;4.700;2022-10-17T16:23:58;8.07;;;5.47;;
17151;SDS011;8691;50.828;4.700;2022-10-17T16:26:25;7.55;;;6.65;;
17151;SDS011;8691;50.828;4.700;2022-10-17T16:28:51;8.18;;;6.62;;
17151;SDS011;8691;50.828;4.700;2022-10-17T16:31:22;6.60;;;5.80;;
17151;SDS011;8691;50.828;4.700;2022-10-17T16:33:48;8.43;;;5.70;;
17151;SDS011;8691;50.828;4.700;2022-10-17T16:36:14;7.83;;;5.40;;
17151;SDS011;8691;50.828;4.700;2022-10-17T16:38:41;8.63;;;5.90;;
17151;SDS011;8691;50.828;4.700;2022-10-17T16:41:12;10.20;;;5.70;;
17151;SDS011;8691;50.828;4.700;2022-10-17T16:43:35;7.17;;;5.93;;
17151;SDS011;8691;50.828;4.700;2022-10-17T16:46:03;7.70;;;6.85;;
17151;SDS011;8691;50.828;4.700;2022-10-17T16:48:30;7.40;;;5.63;;
17151;SDS011;8691;50.828;4.700;2022-10-17T16:50:57;6.63;;;5.00;;
17151;SDS011;8691;50.828;4.700;2022-10-17T16:53:23;7.97;;;5.20;;
17151;SDS011;8691;50.828;4.700;2022-10-17T16:56:02;5.97;;;4.53;;
17151;SDS011;8691;50.828;4.700;2022-10-17T16:58:28;8.47;;;4.70;;
17151;SDS011;8691;50.828;4.700;2022-10-17T17:00:58;7.23;;;4.83;;
17151;SDS011;8691;50.828;4.700;2022-10-17T17:03:22;6.43;;;4.32;;
17151;SDS011;8691;50.828;4.700;2022-10-17T17:05:49;6.32;;;4.10;;
17151;SDS011;8691;50.828;4.700;2022-10-17T17:08:16;4.47;;;3.20;;
17151;SDS011;8691;50.828;4.700;2022-10-17T17:10:43;4.50;;;3.33;;
17151;SDS011;8691;50.828;4.700;2022-10-17T17:13:10;5.90;;;3.70;;